createdAt,value
2022-12-22T00:02:29.024Z,19.92
2022-12-22T00:05:14.674Z,19.85
2022-12-22T00:07:59.860Z,19.92
2022-12-22T00:10:45.129Z,19.50
2022-12-22T00:13:33.783Z,17.80
2022-12-22T00:16:19.060Z,18.65
2022-12-22T00:19:04.458Z,21.00
2022-12-22T00:21:50.080Z,13.45
2022-12-22T00:24:35.271Z,23.05
2022-12-22T00:27:20.929Z,19.90
2022-12-22T00:30:07.252Z,20.63
2022-12-22T00:32:56.650Z,17.77
2022-12-22T00:35:44.762Z,18.08
2022-12-22T00:38:39.572Z,20.92
2022-12-22T00:41:25.657Z,19.92
2022-12-22T00:44:10.965Z,18.45
2022-12-22T00:47:00.861Z,24.52
2022-12-22T00:49:50.335Z,22.45
2022-12-22T00:52:40.107Z,23.60
2022-12-22T00:55:33.345Z,21.60
2022-12-22T00:58:21.006Z,23.50
2022-12-22T01:01:06.397Z,21.50
2022-12-22T01:03:51.891Z,21.48
2022-12-22T01:06:37.665Z,21.08
2022-12-22T01:09:24.502Z,23.30
2022-12-22T01:12:09.794Z,26.90
2022-12-22T01:14:55.089Z,18.33
2022-12-22T01:17:40.330Z,23.75
2022-12-22T01:20:27.184Z,21.42
2022-12-22T01:23:12.429Z,23.17
2022-12-22T01:25:57.536Z,23.48
2022-12-22T01:28:42.749Z,19.55
2022-12-22T01:31:49.863Z,21.88
2022-12-22T01:34:35.702Z,21.80
2022-12-22T01:37:20.863Z,22.15
2022-12-22T01:40:06.036Z,23.98
2022-12-22T01:42:53.114Z,24.40
2022-12-22T01:45:48.687Z,23.27
2022-12-22T01:48:38.820Z,22.13
2022-12-22T01:51:31.754Z,23.75
2022-12-22T01:54:18.069Z,23.13
2022-12-22T01:57:06.869Z,20.73
2022-12-22T01:59:52.675Z,23.85
2022-12-22T02:02:41.459Z,20.23
2022-12-22T02:05:31.336Z,23.58
2022-12-22T02:08:35.772Z,23.75
2022-12-22T02:12:35.203Z,24.92
2022-12-22T02:15:41.020Z,27.70
2022-12-22T02:18:41.120Z,25.02
2022-12-22T02:21:35.865Z,22.35
2022-12-22T02:25:11.867Z,21.75
2022-12-22T02:28:00.878Z,21.35
2022-12-22T02:30:48.229Z,20.83
2022-12-22T02:33:33.600Z,26.58
2022-12-22T02:36:39.904Z,23.40
2022-12-22T02:39:52.311Z,28.13
2022-12-22T02:42:51.846Z,25.13
2022-12-22T02:45:51.002Z,32.42
2022-12-22T02:48:50.450Z,26.67
2022-12-22T02:51:47.811Z,24.92
2022-12-22T02:54:36.133Z,27.08
2022-12-22T02:57:36.355Z,22.52
2022-12-22T03:00:24.735Z,27.27
2022-12-22T03:03:10.377Z,30.63
2022-12-22T03:05:55.977Z,28.25
2022-12-22T03:08:41.348Z,29.50
2022-12-22T03:11:26.477Z,29.67
2022-12-22T03:14:11.679Z,30.08
2022-12-22T03:16:56.973Z,37.10
2022-12-22T03:19:42.011Z,27.25
2022-12-22T03:22:27.280Z,37.90
2022-12-22T03:25:12.492Z,29.05
2022-12-22T03:27:39.234Z,31.30
2022-12-22T03:30:06.800Z,29.83
2022-12-22T03:32:33.618Z,31.23
2022-12-22T03:35:00.349Z,34.40
2022-12-22T03:37:27.082Z,32.28
2022-12-22T03:39:53.845Z,31.70
2022-12-22T03:42:50.005Z,41.67
2022-12-22T03:45:35.542Z,30.60
2022-12-22T03:48:02.267Z,32.17
2022-12-22T03:50:29.015Z,33.30
2022-12-22T03:52:55.771Z,34.42
2022-12-22T03:55:22.584Z,49.47
2022-12-22T03:57:49.376Z,30.55
2022-12-22T04:00:16.665Z,50.00
2022-12-22T04:02:43.600Z,46.10
2022-12-22T04:05:10.545Z,40.42
2022-12-22T04:07:37.351Z,34.35
2022-12-22T04:10:25.225Z,33.17
2022-12-22T04:12:55.820Z,36.08
2022-12-22T04:15:29.561Z,33.85
2022-12-22T04:17:58.304Z,37.72
2022-12-22T04:20:27.916Z,46.72
2022-12-22T04:22:56.731Z,49.85
2022-12-22T04:25:24.926Z,43.22
2022-12-22T04:27:51.781Z,59.20
2022-12-22T04:30:18.800Z,74.75
2022-12-22T04:32:45.620Z,79.03
2022-12-22T04:35:12.445Z,88.32
2022-12-22T04:37:39.216Z,43.92
2022-12-22T04:40:06.858Z,46.28
2022-12-22T04:42:33.802Z,53.13
2022-12-22T04:45:00.544Z,49.65
2022-12-22T04:47:27.331Z,50.03
2022-12-22T04:49:55.722Z,84.45
2022-12-22T04:52:23.158Z,54.97
2022-12-22T04:54:49.992Z,114.72
2022-12-22T04:57:16.785Z,92.30
2022-12-22T04:59:43.693Z,76.07
2022-12-22T05:02:10.684Z,82.07
2022-12-22T05:04:37.504Z,48.83
2022-12-22T05:07:05.413Z,108.80
2022-12-22T05:09:32.173Z,94.22
2022-12-22T05:11:58.919Z,92.40
2022-12-22T05:14:25.725Z,437.17
2022-12-22T05:16:52.464Z,94.35
2022-12-22T05:19:19.806Z,148.85
2022-12-22T05:21:46.620Z,98.50
2022-12-22T05:24:13.524Z,80.03
2022-12-22T05:26:40.266Z,121.68
2022-12-22T05:29:06.999Z,159.43
2022-12-22T05:31:35.245Z,142.73
2022-12-22T05:34:01.978Z,120.82
2022-12-22T05:36:28.779Z,89.45
2022-12-22T05:38:55.554Z,115.15
2022-12-22T05:41:22.383Z,82.53
2022-12-22T05:43:49.178Z,86.90
2022-12-22T05:46:16.404Z,84.82
2022-12-22T05:48:43.185Z,125.03
2022-12-22T05:51:10.730Z,139.27
2022-12-22T05:53:38.866Z,82.35
2022-12-22T05:56:06.647Z,112.70
2022-12-22T05:58:35.344Z,114.88
2022-12-22T06:01:02.128Z,110.30
2022-12-22T06:03:30.368Z,82.40
2022-12-22T06:05:58.643Z,91.30
2022-12-22T06:08:26.867Z,70.20
2022-12-22T06:10:56.178Z,63.05
2022-12-22T06:13:23.420Z,59.67
2022-12-22T06:15:50.448Z,43.58
2022-12-22T06:18:17.797Z,40.05
2022-12-22T06:20:47.575Z,35.25
2022-12-22T06:23:14.463Z,22.30
2022-12-22T06:25:41.247Z,37.78
2022-12-22T06:28:08.104Z,39.35
2022-12-22T06:30:34.857Z,34.17
2022-12-22T06:33:01.812Z,35.03
2022-12-22T06:35:28.800Z,30.80
2022-12-22T06:37:55.667Z,36.03
2022-12-22T06:40:22.839Z,27.77
2022-12-22T06:43:08.964Z,38.30
2022-12-22T06:45:42.552Z,38.88
2022-12-22T06:48:12.410Z,47.25
2022-12-22T06:50:39.649Z,52.30
2022-12-22T06:53:08.397Z,47.30
2022-12-22T06:55:35.491Z,39.17
2022-12-22T06:58:02.371Z,41.33
2022-12-22T07:00:29.713Z,42.97
2022-12-22T07:02:56.705Z,39.42
2022-12-22T07:05:24.490Z,45.53
2022-12-22T07:07:52.307Z,36.17
2022-12-22T07:10:39.785Z,48.10
2022-12-22T07:13:19.289Z,54.42
2022-12-22T07:15:53.702Z,56.83
2022-12-22T07:18:27.090Z,55.47
2022-12-22T07:20:54.637Z,41.15
2022-12-22T07:23:21.393Z,48.53
2022-12-22T07:25:48.173Z,56.00
2022-12-22T07:28:18.535Z,68.32
2022-12-22T07:30:48.891Z,68.78
2022-12-22T07:33:16.139Z,65.70
2022-12-22T07:35:43.118Z,50.97
2022-12-22T07:38:10.010Z,63.38
2022-12-22T07:40:41.614Z,73.47
2022-12-22T07:43:09.014Z,75.80
2022-12-22T07:45:36.528Z,72.35
2022-12-22T07:48:28.135Z,82.40
2022-12-22T07:51:03.236Z,66.68
2022-12-22T07:53:30.106Z,67.57
2022-12-22T07:55:57.025Z,58.05
2022-12-22T07:58:23.766Z,76.53
2022-12-22T08:00:50.493Z,64.63
2022-12-22T08:03:17.456Z,56.47
2022-12-22T08:05:45.532Z,72.97
2022-12-22T08:08:12.328Z,74.82
2022-12-22T08:10:39.032Z,72.88
2022-12-22T08:13:05.856Z,47.72
2022-12-22T08:15:32.901Z,62.13
2022-12-22T08:17:59.733Z,49.67
2022-12-22T08:20:26.500Z,43.03
2022-12-22T08:22:53.284Z,32.70
2022-12-22T08:25:20.132Z,58.88
2022-12-22T08:27:56.685Z,70.72
2022-12-22T08:30:23.461Z,59.83
2022-12-22T08:32:51.810Z,59.72
2022-12-22T08:35:20.209Z,31.33
2022-12-22T08:37:48.696Z,43.83
2022-12-22T08:40:22.901Z,47.33
2022-12-22T08:42:56.457Z,53.33
2022-12-22T08:45:23.211Z,36.10
2022-12-22T08:47:49.956Z,52.53
2022-12-22T08:50:16.984Z,48.35
2022-12-22T08:52:43.841Z,47.20
2022-12-22T08:55:11.220Z,32.78
2022-12-22T08:57:39.532Z,46.05
2022-12-22T09:00:09.655Z,27.55
2022-12-22T09:02:37.124Z,49.85
2022-12-22T09:05:04.951Z,35.72
2022-12-22T09:07:31.757Z,28.27
2022-12-22T09:09:58.649Z,25.83
2022-12-22T09:12:25.568Z,51.28
2022-12-22T09:14:52.403Z,35.00
2022-12-22T09:17:19.210Z,41.20
2022-12-22T09:19:46.005Z,38.20
2022-12-22T09:22:12.874Z,55.45
2022-12-22T09:24:39.720Z,55.95
2022-12-22T09:27:09.094Z,45.03
2022-12-22T09:29:37.410Z,46.05
2022-12-22T09:32:05.136Z,56.28
2022-12-22T09:34:32.041Z,55.05
2022-12-22T09:36:58.915Z,44.00
2022-12-22T09:39:29.080Z,48.42
2022-12-22T09:41:58.177Z,45.47
2022-12-22T09:44:28.479Z,29.40
2022-12-22T09:47:00.657Z,41.25
2022-12-22T09:49:28.486Z,57.28
2022-12-22T09:52:02.541Z,58.10
2022-12-22T09:54:30.853Z,56.45
2022-12-22T09:56:58.742Z,43.00
2022-12-22T09:59:28.853Z,47.97
2022-12-22T10:02:40.707Z,26.60
2022-12-22T10:05:28.373Z,36.30
2022-12-22T10:08:02.542Z,34.78
2022-12-22T10:10:32.686Z,42.50
2022-12-22T10:13:02.962Z,45.95
2022-12-22T10:15:40.170Z,38.53
2022-12-22T10:18:29.457Z,24.55
2022-12-22T10:21:14.547Z,41.50
2022-12-22T10:23:46.776Z,33.78
2022-12-22T10:29:12.438Z,29.00
2022-12-22T10:32:17.184Z,36.30
2022-12-22T10:35:05.681Z,24.83
2022-12-22T10:37:37.511Z,34.38
2022-12-22T10:40:22.140Z,32.08
2022-12-22T10:42:56.126Z,22.60
2022-12-22T10:45:27.687Z,38.88
2022-12-22T10:47:57.932Z,29.80
2022-12-22T10:50:24.838Z,28.30
2022-12-22T10:52:58.571Z,41.30
2022-12-22T10:55:30.682Z,33.03
2022-12-22T10:58:21.547Z,31.33
2022-12-22T11:01:05.515Z,26.85
2022-12-22T11:03:32.875Z,31.85
2022-12-22T11:06:01.192Z,29.65
2022-12-22T11:08:32.025Z,32.40
2022-12-22T11:11:07.251Z,24.98
2022-12-22T11:14:07.462Z,22.08
2022-12-22T11:16:52.442Z,24.52
2022-12-22T11:19:49.153Z,20.60
2022-12-22T11:22:53.027Z,27.23
2022-12-22T11:25:23.075Z,29.00
2022-12-22T11:28:23.053Z,27.63
2022-12-22T11:31:17.204Z,19.27
2022-12-22T11:34:05.738Z,21.08
2022-12-22T11:36:44.379Z,32.05
2022-12-22T11:42:35.868Z,21.42
2022-12-22T11:45:20.459Z,24.33
2022-12-22T11:48:00.732Z,21.95
2022-12-22T11:50:59.768Z,20.15
2022-12-22T11:54:17.565Z,18.88
2022-12-22T11:57:02.632Z,19.42
2022-12-22T11:59:58.015Z,22.20
2022-12-22T12:02:56.338Z,20.17
2022-12-22T12:06:02.667Z,26.10
2022-12-22T12:08:46.244Z,31.48
2022-12-22T12:11:29.882Z,32.80
2022-12-22T12:13:59.627Z,37.30
2022-12-22T12:17:00.125Z,36.45
2022-12-22T12:19:50.514Z,23.30
2022-12-22T12:22:34.828Z,40.15
2022-12-22T12:25:26.209Z,46.58
2022-12-22T12:28:08.058Z,42.47
2022-12-22T12:30:55.534Z,35.53
2022-12-22T12:33:46.744Z,43.78
2022-12-22T12:36:40.578Z,30.23
2022-12-22T12:39:46.807Z,26.92
2022-12-22T12:42:37.733Z,28.73
2022-12-22T12:45:33.784Z,33.00
2022-12-22T12:48:22.300Z,29.00
2022-12-22T12:50:58.886Z,32.03
2022-12-22T12:53:28.011Z,28.80
2022-12-22T12:56:02.544Z,33.83
2022-12-22T12:58:35.181Z,32.25
2022-12-22T13:01:04.824Z,33.35
2022-12-22T13:04:01.974Z,26.92
2022-12-22T13:06:49.117Z,30.88
2022-12-22T13:09:49.161Z,28.08
2022-12-22T13:15:01.875Z,25.35
2022-12-22T13:17:48.344Z,25.90
2022-12-22T13:20:41.018Z,22.67
2022-12-22T13:23:15.198Z,23.70
2022-12-22T13:26:00.464Z,26.90
2022-12-22T13:28:28.978Z,32.55
2022-12-22T13:31:06.443Z,26.98
2022-12-22T13:33:40.091Z,22.88
2022-12-22T13:36:18.171Z,19.90
2022-12-22T13:38:45.766Z,33.08
2022-12-22T13:41:26.579Z,22.08
2022-12-22T13:44:04.514Z,19.90
2022-12-22T13:46:36.290Z,20.38
2022-12-22T13:49:07.576Z,27.10
2022-12-22T13:51:38.056Z,21.88
2022-12-22T13:54:35.949Z,30.35
2022-12-22T13:57:15.287Z,28.30
2022-12-22T13:59:49.166Z,29.13
2022-12-22T14:02:21.793Z,52.35
2022-12-22T14:05:10.365Z,26.50
2022-12-22T14:07:37.284Z,29.05
2022-12-22T14:10:04.755Z,23.13
2022-12-22T14:12:42.022Z,20.33
2022-12-22T14:15:19.377Z,20.65
2022-12-22T14:17:52.073Z,23.83
2022-12-22T14:20:32.498Z,19.85
2022-12-22T14:23:07.881Z,23.38
2022-12-22T14:25:41.938Z,21.25
2022-12-22T14:28:23.046Z,19.00
2022-12-22T14:30:55.510Z,21.80
2022-12-22T14:33:27.889Z,21.90
2022-12-22T14:36:24.963Z,21.75
2022-12-22T14:39:02.304Z,24.38
2022-12-22T14:41:53.683Z,18.10
2022-12-22T14:44:23.238Z,24.13
2022-12-22T14:47:15.048Z,25.40
2022-12-22T14:50:14.060Z,22.15
2022-12-22T14:52:54.863Z,13.50
2022-12-22T14:55:48.399Z,23.60
2022-12-22T14:58:32.720Z,28.05
2022-12-22T15:01:30.724Z,28.92
2022-12-22T15:04:05.559Z,25.85
2022-12-22T15:06:34.774Z,27.17
2022-12-22T15:09:15.209Z,25.38
2022-12-22T15:12:07.026Z,23.52
2022-12-22T15:14:38.971Z,26.38
2022-12-22T15:17:21.419Z,27.60
2022-12-22T15:19:50.480Z,28.02
2022-12-22T15:22:17.437Z,27.13
2022-12-22T15:24:44.229Z,24.55
2022-12-22T15:27:10.979Z,24.38
2022-12-22T15:29:37.949Z,31.70
2022-12-22T15:32:11.402Z,33.08
2022-12-22T15:34:38.513Z,29.20
2022-12-22T15:37:05.451Z,27.98
2022-12-22T15:39:32.218Z,25.73
2022-12-22T15:41:59.040Z,29.00
2022-12-22T15:44:25.853Z,25.17
2022-12-22T15:46:57.826Z,28.38
2022-12-22T15:49:27.891Z,26.38
2022-12-22T15:52:01.704Z,26.70
2022-12-22T15:54:33.126Z,23.77
2022-12-22T15:57:01.383Z,27.73
2022-12-22T15:59:29.983Z,30.00
2022-12-22T16:02:01.781Z,30.80
2022-12-22T16:04:30.064Z,30.23
2022-12-22T16:06:59.242Z,31.73
2022-12-22T16:09:32.901Z,30.58
2022-12-22T16:11:59.996Z,31.63
2022-12-22T16:14:26.952Z,30.55
2022-12-22T16:16:56.707Z,36.88
2022-12-22T16:19:23.509Z,36.63
2022-12-22T16:21:53.500Z,37.67
2022-12-22T16:24:31.736Z,33.15
2022-12-22T16:26:59.307Z,25.52
2022-12-22T16:29:27.407Z,39.00
2022-12-22T16:32:17.695Z,39.10
2022-12-22T16:34:45.239Z,33.90
2022-12-22T16:37:12.013Z,38.05
2022-12-22T16:39:38.786Z,44.13
2022-12-22T16:44:59.618Z,37.08
2022-12-22T16:47:33.168Z,31.40
2022-12-22T16:50:01.030Z,42.35
2022-12-22T16:52:41.190Z,46.25
2022-12-22T16:55:20.744Z,33.55
2022-12-22T16:57:48.484Z,35.38
2022-12-22T17:00:31.582Z,50.15
2022-12-22T17:03:27.367Z,48.97
2022-12-22T17:05:59.240Z,52.60
2022-12-22T17:08:32.670Z,29.88
2022-12-22T17:11:10.177Z,41.03
2022-12-22T17:13:38.833Z,29.75
2022-12-22T17:16:05.904Z,33.22
2022-12-22T17:18:34.725Z,36.40
2022-12-22T17:21:01.605Z,35.53
2022-12-22T17:23:43.199Z,17.05
2022-12-22T17:26:16.363Z,39.80
2022-12-22T17:28:44.359Z,28.25
2022-12-22T17:31:25.059Z,29.20
2022-12-22T17:33:51.877Z,25.33
2022-12-22T17:36:33.205Z,31.48
2022-12-22T17:39:02.003Z,20.90
2022-12-22T17:41:29.443Z,35.95
2022-12-22T17:43:56.406Z,20.15
2022-12-22T17:46:23.403Z,30.40
2022-12-22T17:48:50.882Z,20.77
2022-12-22T17:51:26.311Z,25.38
2022-12-22T17:53:54.882Z,30.13
2022-12-22T17:56:25.265Z,20.52
2022-12-22T17:58:52.439Z,29.63
2022-12-22T18:01:32.096Z,30.08
2022-12-22T18:03:59.217Z,30.45
2022-12-22T18:06:33.834Z,41.08
2022-12-22T18:09:01.608Z,42.65
2022-12-22T18:11:28.450Z,37.50
2022-12-22T18:13:57.315Z,35.03
2022-12-22T18:16:24.717Z,26.48
2022-12-22T18:18:52.145Z,22.35
2022-12-22T18:21:24.765Z,18.88
2022-12-22T18:23:52.723Z,33.63
2022-12-22T18:26:31.199Z,30.52
2022-12-22T18:28:58.836Z,12.90
2022-12-22T18:31:26.036Z,30.80
2022-12-22T18:33:53.042Z,17.63
2022-12-22T18:36:34.119Z,20.92
2022-12-22T18:39:02.187Z,21.25
2022-12-22T18:41:34.860Z,31.80
2022-12-22T18:44:01.701Z,28.67
2022-12-22T18:46:28.540Z,18.67
2022-12-22T18:49:00.384Z,37.67
2022-12-22T18:51:30.427Z,28.27
2022-12-22T18:53:57.520Z,37.67
2022-12-22T18:56:24.583Z,21.85
2022-12-22T18:58:51.396Z,23.55
2022-12-22T19:01:26.325Z,34.90
2022-12-22T19:03:56.599Z,27.85
2022-12-22T19:06:24.476Z,36.25
2022-12-22T19:08:51.890Z,31.85
2022-12-22T19:11:25.197Z,24.58
2022-12-22T19:13:52.693Z,36.05
2022-12-22T19:16:26.879Z,33.00
2022-12-22T19:18:53.797Z,28.67
2022-12-22T19:21:20.915Z,20.10
2022-12-22T19:23:48.564Z,24.38
2022-12-22T19:26:27.042Z,26.05
2022-12-22T19:29:00.495Z,22.98
2022-12-22T19:31:31.644Z,29.65
2022-12-22T19:34:03.014Z,27.70
2022-12-22T19:36:31.409Z,34.17
2022-12-22T19:39:04.707Z,29.70
2022-12-22T19:41:53.604Z,20.77
2022-12-22T19:44:30.620Z,24.98
2022-12-22T19:47:01.911Z,23.45
2022-12-22T19:49:29.644Z,21.75
2022-12-22T19:51:57.381Z,23.88
2022-12-22T19:54:24.932Z,30.50
2022-12-22T19:56:55.934Z,20.67
2022-12-22T19:59:39.577Z,19.67
2022-12-22T20:02:26.174Z,15.70
2022-12-22T20:04:55.268Z,20.63
2022-12-22T20:07:25.571Z,19.05
2022-12-22T20:09:52.978Z,17.90
2022-12-22T20:12:42.445Z,21.40
2022-12-22T20:15:23.005Z,18.95
2022-12-22T20:17:53.314Z,22.65
2022-12-22T20:20:36.858Z,27.40
2022-12-22T20:23:14.373Z,18.85
2022-12-22T20:25:47.205Z,20.27
2022-12-22T20:28:20.730Z,22.38
2022-12-22T20:30:48.860Z,18.02
2022-12-22T20:33:18.347Z,21.98
2022-12-22T20:35:48.032Z,25.05
2022-12-22T20:38:40.144Z,15.65
2022-12-22T20:41:10.459Z,24.75
2022-12-22T20:43:39.127Z,28.00
2022-12-22T20:46:28.627Z,25.15
2022-12-22T20:49:00.944Z,19.38
2022-12-22T20:53:59.494Z,25.75
2022-12-22T20:56:31.686Z,22.75
2022-12-22T20:59:11.694Z,28.35
2022-12-22T21:01:38.557Z,29.25
2022-12-22T21:04:05.618Z,20.63
2022-12-22T21:06:39.688Z,30.40
2022-12-22T21:09:06.557Z,25.90
2022-12-22T21:11:34.433Z,31.38
2022-12-22T21:14:01.237Z,27.60
2022-12-22T21:16:31.774Z,27.75
2022-12-22T21:18:58.844Z,25.80
2022-12-22T21:21:26.074Z,28.15
2022-12-22T21:23:52.903Z,25.95
2022-12-22T21:26:47.377Z,27.08
2022-12-22T21:29:21.889Z,21.63
2022-12-22T21:31:48.820Z,25.13
2022-12-22T21:34:15.733Z,19.75
2022-12-22T21:36:46.723Z,29.08
2022-12-22T21:39:28.866Z,17.08
2022-12-22T21:42:01.920Z,24.88
2022-12-22T21:44:31.344Z,31.90
2022-12-22T21:46:58.322Z,24.48
2022-12-22T21:49:28.971Z,16.83
2022-12-22T21:51:56.225Z,27.50
2022-12-22T21:54:24.877Z,19.92
2022-12-22T21:56:53.523Z,25.15
2022-12-22T21:59:21.252Z,29.50
2022-12-22T22:01:48.379Z,17.48
2022-12-22T22:04:15.564Z,26.65
2022-12-22T22:06:42.438Z,17.00
2022-12-22T22:09:09.509Z,26.05
2022-12-22T22:11:59.242Z,26.58
2022-12-22T22:14:27.027Z,22.17
2022-12-22T22:16:54.087Z,19.63
2022-12-22T22:19:21.230Z,17.60
2022-12-22T22:21:48.128Z,23.73
2022-12-22T22:24:14.985Z,19.77
2022-12-22T22:26:45.764Z,20.95
2022-12-22T22:29:12.903Z,19.50
2022-12-22T22:31:41.116Z,27.77
2022-12-22T22:34:08.260Z,23.15
2022-12-22T22:36:35.126Z,19.33
2022-12-22T22:39:02.049Z,18.20
2022-12-22T22:41:32.328Z,15.30
2022-12-22T22:44:02.067Z,24.20
2022-12-22T22:46:28.878Z,28.65
2022-12-22T22:48:58.558Z,17.77
2022-12-22T22:51:25.426Z,14.80
2022-12-22T22:53:52.254Z,20.35
2022-12-22T22:56:19.048Z,16.42
2022-12-22T22:58:45.763Z,27.50
2022-12-22T23:01:12.679Z,22.80
2022-12-22T23:03:40.364Z,17.77
2022-12-22T23:06:11.999Z,33.45
2022-12-22T23:08:39.129Z,30.02
2022-12-22T23:11:12.237Z,24.52
2022-12-22T23:13:39.061Z,25.90
2022-12-22T23:16:06.119Z,24.40
2022-12-22T23:18:33.853Z,28.33
2022-12-22T23:21:02.729Z,27.33
2022-12-22T23:23:31.671Z,27.20
2022-12-22T23:25:58.766Z,30.45
2022-12-22T23:28:26.219Z,21.45
2022-12-22T23:30:53.772Z,37.85
2022-12-22T23:33:20.948Z,27.70
2022-12-22T23:35:50.195Z,21.75
2022-12-22T23:38:20.976Z,27.02
2022-12-22T23:40:53.529Z,30.75
2022-12-22T23:43:21.342Z,29.95
2022-12-22T23:45:48.107Z,26.55
2022-12-22T23:48:14.974Z,15.27
2022-12-22T23:50:46.042Z,29.95
2022-12-22T23:53:13.024Z,26.42
2022-12-22T23:55:44.984Z,27.38
2022-12-22T23:58:12.792Z,24.90
